Time;durP1;ratioP1;P1;durP2;ratioP2;P2;SDS_P1;SDS_P2;PMS_P1;PMS_P2;Temp;Humidity;BMP_temperature;BMP_pressure;BME280_temperature;BME280_humidity;BME280_pressure;Samples;Min_cycle;Max_cycle;Signal;HPM_P1;HPM_P2
2022/08/17 00:00:47;;;;;;;;;23.00;19.75;;;;;20.95;74.27;100521.16;5098346;27;45389;-54
2022/08/17 00:03:14;;;;;;;;;18.25;16.50;;;;;20.92;74.45;100517.81;5097922;27;46257;-54
2022/08/17 00:05:42;;;;;;;;;20.25;16.25;;;;;20.92;74.97;100520.53;5097900;27;45278;-55
2022/08/17 00:08:08;;;;;;;;;16.50;16.25;;;;;20.95;75.36;100511.16;5098058;27;45398;-55
2022/08/17 00:10:34;;;;;;;;;17.25;15.50;;;;;20.93;74.67;100503.25;5098231;27;45997;-54
2022/08/17 00:13:04;;;;;;;;;15.25;14.75;;;;;20.92;74.24;100498.06;5097702;27;46774;-54
2022/08/17 00:15:30;;;;;;;;;14.50;13.25;;;;;20.92;74.89;100501.59;5098030;27;45241;-55
2022/08/17 00:17:56;;;;;;;;;22.75;18.50;;;;;20.92;74.92;100500.78;5098042;27;45335;-54
2022/08/17 00:20:21;;;;;;;;;14.00;12.50;;;;;20.77;74.61;100473.22;5097934;27;45172;-55
2022/08/17 00:22:47;;;;;;;;;20.25;18.00;;;;;20.93;74.79;100499.72;5097676;27;47298;-54
2022/08/17 00:25:15;;;;;;;;;14.00;12.50;;;;;20.89;74.15;100501.22;5097847;27;45341;-55
2022/08/17 00:27:41;;;;;;;;;15.75;14.00;;;;;20.87;74.55;100503.31;5097875;27;45484;-54
2022/08/17 00:30:09;;;;;;;;;14.50;14.50;;;;;20.74;74.62;100479.09;5096557;27;45461;-54
2022/08/17 00:32:41;;;;;;;;;18.25;14.75;;;;;20.83;74.20;100496.69;5097611;27;46640;-55
2022/08/17 00:35:09;;;;;;;;;15.00;15.00;;;;;20.85;74.92;100490.00;5097397;27;45349;-54
2022/08/17 00:37:35;;;;;;;;;17.50;16.25;;;;;20.84;74.54;100487.53;5096880;27;45469;-52
2022/08/17 00:40:01;;;;;;;;;19.25;18.50;;;;;20.82;74.94;100487.75;5098032;27;45219;-52
2022/08/17 00:42:26;;;;;;;;;17.75;16.50;;;;;20.80;75.36;100495.25;5097364;27;46221;-55
2022/08/17 00:44:52;;;;;;;;;23.50;18.75;;;;;20.79;74.98;100492.78;5097075;27;45401;-52
2022/08/17 00:47:18;;;;;;;;;20.75;16.00;;;;;20.78;74.85;100488.44;5097617;27;45424;-53
2022/08/17 00:49:43;;;;;;;;;18.00;18.00;;;;;20.78;74.97;100477.63;5097551;27;45419;-53
2022/08/17 00:52:18;;;;;;;;;17.75;16.25;;;;;20.76;74.49;100474.28;5097420;27;47196;-54
2022/08/17 00:54:47;;;;;;;;;19.25;16.25;;;;;20.78;74.97;100474.91;5097341;27;45600;-53
2022/08/17 00:57:28;;;;;;;;;18.25;17.25;;;;;20.79;74.94;100479.25;5097484;27;45321;-53
2022/08/17 01:00:00;;;;;;;;;20.50;19.00;;;;;20.70;74.86;100467.06;5097586;27;45329;-51
2022/08/17 01:02:27;;;;;;;;;18.25;14.50;;;;;20.80;74.85;100483.63;5097399;27;46208;-53
2022/08/17 01:04:53;;;;;;;;;16.25;14.75;;;;;20.76;75.11;100488.63;5097036;27;45382;-53
2022/08/17 01:07:20;;;;;;;;;16.25;14.00;;;;;20.77;74.93;100490.28;5097448;27;45463;-54
2022/08/17 01:09:47;;;;;;;;;19.00;16.75;;;;;20.68;75.39;100480.78;5097629;27;45835;-53
2022/08/17 01:12:12;;;;;;;;;18.50;17.75;;;;;20.72;75.21;100483.88;5097146;27;46301;-53
2022/08/17 01:14:39;;;;;;;;;21.50;17.00;;;;;20.76;75.72;100487.81;5097230;27;45357;-51
2022/08/17 01:17:05;;;;;;;;;18.25;16.00;;;;;20.76;75.76;100488.63;5097387;27;45352;-54
2022/08/17 01:19:34;;;;;;;;;17.75;16.50;;;;;20.76;75.27;100493.22;5097172;27;45263;-53
2022/08/17 01:22:02;;;;;;;;;17.25;17.25;;;;;20.76;75.67;100491.31;5097197;27;45313;-54
2022/08/17 01:24:28;;;;;;;;;19.50;16.75;;;;;20.76;75.95;100499.44;5096921;27;45222;-53
2022/08/17 01:26:54;;;;;;;;;20.50;17.00;;;;;20.68;75.67;100481.59;5097106;27;45311;-54
2022/08/17 01:29:21;;;;;;;;;22.00;18.50;;;;;20.72;75.09;100497.41;5097314;27;45367;-53
2022/08/17 01:31:51;;;;;;;;;21.75;18.50;;;;;20.69;76.12;100490.56;5096725;27;46905;-54
2022/08/17 01:34:17;;;;;;;;;18.25;16.00;;;;;20.71;76.21;100501.16;5096774;27;45340;-53
2022/08/17 01:36:45;;;;;;;;;22.00;17.00;;;;;20.66;75.99;100499.94;5096643;27;45326;-53
2022/08/17 01:39:39;;;;;;;;;18.50;17.75;;;;;20.61;75.02;100497.06;5097015;27;45454;-51
2022/08/17 01:42:07;;;;;;;;;18.50;18.00;;;;;20.59;76.11;100496.44;5096414;27;46494;-54
2022/08/17 01:44:33;;;;;;;;;22.50;17.50;;;;;20.58;76.40;100496.66;5096769;27;45414;-52
2022/08/17 01:46:58;;;;;;;;;21.75;19.00;;;;;20.55;76.58;100508.72;5096825;27;45361;-55
2022/08/17 01:49:24;;;;;;;;;20.50;18.25;;;;;20.53;76.63;100505.44;5098702;27;45463;-53
2022/08/17 01:51:49;;;;;;;;;28.00;19.25;;;;;20.51;75.98;100501.28;5100192;27;46160;-51
2022/08/17 01:54:17;;;;;;;;;18.00;17.75;;;;;20.46;76.66;100492.97;5100210;27;45302;-52
2022/08/17 01:56:46;;;;;;;;;17.75;17.00;;;;;20.41;76.31;100497.16;5100309;27;45281;-55
2022/08/17 01:59:12;;;;;;;;;18.00;15.25;;;;;20.41;76.91;100499.03;5100419;27;46201;-53
2022/08/17 02:01:37;;;;;;;;;24.00;19.75;;;;;20.38;77.26;100502.16;5099810;27;46040;-53
2022/08/17 02:04:05;;;;;;;;;19.50;16.75;;;;;20.38;77.40;100518.38;5100068;27;45334;-53
2022/08/17 02:06:35;;;;;;;;;25.50;20.75;;;;;20.36;77.26;100507.78;5099871;27;45434;-52
2022/08/17 02:09:01;;;;;;;;;28.00;24.00;;;;;20.34;77.53;100514.44;5100420;27;45191;-53
2022/08/17 02:11:27;;;;;;;;;30.25;24.25;;;;;20.31;77.77;100523.81;5099863;27;45316;-53
2022/08/17 02:13:53;;;;;;;;;23.75;20.00;;;;;20.29;77.66;100515.09;5099797;27;45511;-54
2022/08/17 02:16:18;;;;;;;;;25.67;21.00;;;;;20.24;77.60;100508.69;5100091;27;45441;-53
2022/08/17 02:18:45;;;;;;;;;26.00;21.00;;;;;20.25;77.30;100518.44;5100005;27;45305;-54
2022/08/17 02:21:12;;;;;;;;;29.25;19.50;;;;;20.22;78.12;100508.06;5099579;27;46157;-54
2022/08/17 02:23:42;;;;;;;;;23.00;21.50;;;;;20.22;77.48;100508.06;5099825;27;45340;-56
2022/08/17 02:26:07;;;;;;;;;24.00;18.25;;;;;20.21;77.70;100507.25;5099825;27;45351;-54
2022/08/17 02:28:33;;;;;;;;;22.75;21.25;;;;;20.19;77.39;100499.38;5100025;27;45355;-55
2022/08/17 02:31:04;;;;;;;;;27.67;23.33;;;;;20.18;77.99;100497.72;5099520;27;46139;-54
2022/08/17 02:33:31;;;;;;;;;24.33;20.00;;;;;20.19;77.49;100512.88;5099495;27;45396;-53
2022/08/17 02:35:56;;;;;;;;;30.25;23.25;;;;;20.19;77.91;100503.94;5099421;27;45450;-54
2022/08/17 02:38:22;;;;;;;;;23.00;23.00;;;;;20.04;77.75;100488.00;5100037;27;45473;-54
2022/08/17 02:40:47;;;;;;;;;29.33;23.67;;;;;20.18;77.47;100519.31;5099389;27;46220;-53
2022/08/17 02:43:12;;;;;;;;;28.50;26.00;;;;;20.18;77.73;100523.88;5099385;27;45424;-54
2022/08/17 02:45:38;;;;;;;;;22.25;19.25;;;;;20.19;77.89;100517.44;5099346;27;45428;-55
2022/08/17 02:48:04;;;;;;;;;29.67;26.33;;;;;20.22;78.83;100521.56;5099998;27;45351;-54
2022/08/17 02:50:29;;;;;;;;;29.67;20.33;;;;;20.24;77.94;100517.63;5099072;27;46484;-54
2022/08/17 02:52:55;;;;;;;;;20.25;19.00;;;;;20.28;78.05;100528.81;5099396;27;45460;-54
2022/08/17 02:55:27;;;;;;;;;21.25;19.75;;;;;20.27;77.53;100516.34;5099339;27;45512;-53
2022/08/17 02:57:53;;;;;;;;;26.50;19.75;;;;;20.36;77.48;100518.59;5099361;27;45361;-54
2022/08/17 03:00:27;;;;;;;;;20.50;17.75;;;;;20.38;77.06;100513.78;5098530;27;46247;-53
2022/08/17 03:02:55;;;;;;;;;28.50;23.25;;;;;20.39;77.78;100503.81;5099058;27;45306;-54
2022/08/17 03:05:23;;;;;;;;;24.00;21.50;;;;;20.41;77.40;100502.56;5099072;27;45297;-54
2022/08/17 03:07:48;;;;;;;;;22.75;18.50;;;;;20.35;76.76;100491.78;5099203;27;45438;-53
2022/08/17 03:10:14;;;;;;;;;18.25;16.25;;;;;20.26;76.71;100484.97;5099532;27;45996;-55
2022/08/17 03:12:41;;;;;;;;;17.25;15.50;;;;;20.36;76.30;100498.88;5099614;27;45227;-55
2022/08/17 03:15:12;;;;;;;;;16.75;16.25;;;;;20.34;76.83;100498.22;5099917;27;45408;-55
2022/08/17 03:17:38;;;;;;;;;15.25;15.00;;;;;20.31;76.32;100490.56;5099203;27;45234;-57
2022/08/17 03:20:05;;;;;;;;;21.75;17.75;;;;;20.30;76.50;100495.13;5098676;27;46249;-55
2022/08/17 03:22:35;;;;;;;;;19.75;16.50;;;;;20.30;76.41;100495.13;5098580;27;45353;-54
2022/08/17 03:25:02;;;;;;;;;16.75;16.25;;;;;20.29;76.20;100493.47;5098864;27;45330;-55
2022/08/17 03:27:27;;;;;;;;;21.25;20.00;;;;;20.29;76.77;100482.69;5099075;27;45354;-54
2022/08/17 03:29:53;;;;;;;;;19.50;18.75;;;;;20.30;76.28;100472.69;5098658;27;45998;-53
2022/08/17 03:32:19;;;;;;;;;19.25;16.00;;;;;20.28;75.89;100478.34;5098454;27;45445;-55
2022/08/17 03:34:45;;;;;;;;;25.00;18.00;;;;;20.24;76.06;100469.00;5098863;27;45359;-55
2022/08/17 03:37:11;;;;;;;;;14.00;11.50;;;;;20.25;76.14;100469.81;5098538;27;45648;-55
2022/08/17 03:39:37;;;;;;;;;22.00;17.25;;;;;20.14;77.05;100455.97;5097898;27;45356;-54
2022/08/17 03:42:08;;;;;;;;;25.50;21.50;;;;;20.22;77.03;100476.47;5098461;27;45434;-54
2022/08/17 03:44:34;;;;;;;;;22.00;19.75;;;;;20.24;76.80;100469.00;5098575;27;45410;-54
2022/08/17 03:57:55;;;;;;;;;21.00;18.00;;;;;20.37;76.16;100482.44;5098533;27;45358;-55
2022/08/17 04:00:21;;;;;;;;;22.75;19.75;;;;;20.30;76.56;100473.53;5098223;27;45424;-54
2022/08/17 04:02:46;;;;;;;;;18.50;18.25;;;;;20.42;76.57;100493.41;5098115;27;45433;-55
2022/08/17 04:05:13;;;;;;;;;21.50;18.75;;;;;20.42;76.39;100495.28;5098062;27;45377;-53
2022/08/17 04:07:40;;;;;;;;;17.50;17.50;;;;;20.43;76.49;100510.44;5098248;27;45202;-55
2022/08/17 04:10:06;;;;;;;;;21.00;17.75;;;;;20.49;76.02;100503.38;5098135;27;47186;-53
2022/08/17 04:12:46;;;;;;;;;22.25;20.25;;;;;20.54;75.58;100506.25;5096799;27;45202;-54
2022/08/17 04:15:12;;;;;;;;;19.00;18.75;;;;;20.52;76.20;100508.34;5098259;27;45357;-54
2022/08/17 04:17:37;;;;;;;;;20.50;18.50;;;;;20.59;76.75;100515.34;5098271;27;45363;-55
2022/08/17 04:20:03;;;;;;;;;20.00;18.75;;;;;20.63;75.48;100518.47;5097881;27;46242;-54
2022/08/17 04:22:29;;;;;;;;;15.50;13.00;;;;;20.64;75.77;100526.34;5097850;27;45551;-54
2022/08/17 04:24:54;;;;;;;;;20.50;18.50;;;;;20.65;75.02;100521.78;5098146;27;45403;-54
2022/08/17 04:27:19;;;;;;;;;24.75;19.00;;;;;20.66;75.15;100526.13;5098095;27;45296;-55
2022/08/17 04:29:45;;;;;;;;;18.50;17.00;;;;;20.65;74.54;100527.19;5097803;27;46976;-55
2022/08/17 04:32:10;;;;;;;;;18.50;16.25;;;;;20.65;75.13;100528.03;5097694;27;45294;-53
2022/08/17 04:34:35;;;;;;;;;19.75;18.25;;;;;20.64;75.08;100531.75;5097907;27;45710;-54
2022/08/17 04:37:01;;;;;;;;;18.00;17.00;;;;;20.63;75.15;100521.16;5097719;27;45446;-54
2022/08/17 04:39:27;;;;;;;;;19.25;16.50;;;;;20.64;74.49;100526.34;5097485;27;45407;-54
2022/08/17 04:42:15;;;;;;;;;23.75;18.25;;;;;20.61;75.10;100507.88;5097677;27;45414;-54
2022/08/17 04:44:41;;;;;;;;;21.67;20.00;;;;;20.58;74.94;100524.53;5097798;27;45369;-52
2022/08/17 04:47:07;;;;;;;;;23.25;19.75;;;;;20.54;74.85;100517.88;5079502;27;45293;-55
2022/08/17 04:49:33;;;;;;;;;21.50;21.00;;;;;20.53;75.22;100518.94;5097230;27;47017;-55
2022/08/17 04:51:59;;;;;;;;;22.00;19.75;;;;;20.51;74.85;100523.72;5097481;27;45408;-55
2022/08/17 04:54:24;;;;;;;;;22.33;19.00;;;;;20.44;74.76;100501.31;5097576;27;45253;-55
2022/08/17 04:56:50;;;;;;;;;19.75;18.25;;;;;20.47;75.13;100502.72;5097811;27;45198;-55
2022/08/17 04:59:19;;;;;;;;;19.75;19.00;;;;;20.46;75.12;100506.50;5097488;27;45399;-56
2022/08/17 05:01:47;;;;;;;;;19.50;18.00;;;;;20.47;75.78;100503.56;5097482;27;45464;-54
2022/08/17 05:04:16;;;;;;;;;23.33;21.33;;;;;20.49;75.17;100503.38;5097499;27;45353;-55
2022/08/17 05:06:42;;;;;;;;;21.00;18.67;;;;;20.40;75.55;100478.47;5097624;27;45294;-54
2022/08/17 05:09:07;;;;;;;;;27.67;21.67;;;;;20.50;75.48;100496.94;5097143;27;45939;-54
2022/08/17 05:11:33;;;;;;;;;18.50;17.00;;;;;20.48;75.18;100490.88;5096656;27;45395;-54
2022/08/17 05:13:59;;;;;;;;;21.75;20.50;;;;;20.45;75.28;100489.44;5097180;27;45334;-55
2022/08/17 05:16:26;;;;;;;;;19.50;19.50;;;;;20.44;75.21;100498.59;5097638;27;45362;-55
2022/08/17 05:18:52;;;;;;;;;19.00;18.50;;;;;20.49;75.47;100508.78;5096995;27;45370;-54
2022/08/17 05:21:19;;;;;;;;;27.00;21.75;;;;;20.42;75.33;100501.50;5078676;27;45422;-54
2022/08/17 05:23:45;;;;;;;;;31.67;27.00;;;;;20.47;75.50;100516.25;5099383;27;45525;-55
2022/08/17 05:26:13;;;;;;;;;28.67;23.33;;;;;20.41;75.39;100501.75;5100818;27;45339;-55
2022/08/17 05:28:38;;;;;;;;;25.00;20.67;;;;;20.27;76.12;100482.09;5100417;27;46266;-53
2022/08/17 05:31:04;;;;;;;;;27.67;22.67;;;;;20.35;75.74;100495.34;5100844;27;45364;-54
2022/08/17 05:33:35;;;;;;;;;27.67;24.33;;;;;20.30;76.17;100492.44;5098922;27;45398;-54
2022/08/17 05:36:02;;;;;;;;;21.25;19.75;;;;;20.29;76.11;100490.78;5095105;27;45373;-53
2022/08/17 05:38:29;;;;;;;;;27.00;20.50;;;;;20.24;75.68;100484.38;5100222;27;48692;-53
2022/08/17 05:40:56;;;;;;;;;16.00;14.33;;;;;20.22;75.90;100478.34;5100420;27;45441;-53
2022/08/17 05:43:30;;;;;;;;;24.50;22.50;;;;;20.22;75.83;100487.28;5100780;27;45342;-53
2022/08/17 05:46:27;;;;;;;;;27.25;20.25;;;;;20.22;75.38;100484.59;5100647;27;45258;-55
2022/08/17 05:48:58;;;;;;;;;28.25;22.00;;;;;20.13;75.68;100467.81;5100692;27;46445;-54
2022/08/17 05:51:45;;;;;;;;;26.00;21.25;;;;;20.29;75.85;100489.97;5100169;27;45286;-54
2022/08/17 05:54:29;;;;;;;;;27.67;22.00;;;;;20.37;76.17;100484.31;5100264;27;45428;-52
2022/08/17 05:57:00;;;;;;;;;22.00;20.00;;;;;20.44;74.90;100471.59;5100464;27;45405;-54
2022/08/17 05:59:48;;;;;;;;;24.00;17.50;;;;;20.51;75.24;100482.38;5100081;27;45380;-53
2022/08/17 06:02:50;;;;;;;;;24.25;21.75;;;;;20.60;74.80;100478.34;5100409;27;45406;-55
2022/08/17 06:05:54;;;;;;;;;25.50;20.00;;;;;20.67;74.34;100477.25;5100244;27;45318;-55
2022/08/17 06:08:41;;;;;;;;;19.00;19.00;;;;;20.71;74.14;100479.53;5057107;28;45600;-53
2022/08/17 06:11:25;;;;;;;;;22.25;18.00;;;;;20.76;73.93;100471.59;5056799;28;46172;-55
2022/08/17 06:14:00;;;;;;;;;22.25;19.00;;;;;20.78;73.41;100477.63;5056818;28;45500;-55
2022/08/17 06:16:34;;;;;;;;;24.50;21.25;;;;;20.81;73.69;100480.69;5056995;28;45533;-55
2022/08/17 06:19:08;;;;;;;;;19.50;18.50;;;;;20.86;74.13;100488.97;5057285;28;45414;-55
2022/08/17 06:21:38;;;;;;;;;29.75;22.75;;;;;20.92;73.70;100498.91;5056804;28;45319;-54
2022/08/17 06:24:36;;;;;;;;;24.75;20.00;;;;;20.90;73.37;100514.53;5056486;28;45404;-54
2022/08/17 06:27:34;;;;;;;;;24.50;21.25;;;;;20.90;73.31;100521.81;5056836;28;45338;-54
2022/08/17 06:30:12;;;;;;;;;22.25;20.00;;;;;20.90;74.07;100532.63;5056855;28;45513;-54
2022/08/17 06:32:41;;;;;;;;;24.25;22.25;;;;;20.94;73.79;100547.34;5056167;28;46343;-54
2022/08/17 06:35:09;;;;;;;;;27.00;22.25;;;;;20.91;74.25;100540.50;5055654;28;45491;-56
2022/08/17 06:38:00;;;;;;;;;32.00;27.00;;;;;20.89;73.43;100549.88;5056330;28;45484;-53
2022/08/17 06:41:08;;;;;;;;;28.50;24.50;;;;;20.79;74.26;100550.38;5056826;28;45390;-54
2022/08/17 06:43:59;;;;;;;;;29.50;24.50;;;;;20.78;74.08;100554.13;5056043;28;46131;-53
2022/08/17 06:46:37;;;;;;;;;29.00;27.00;;;;;20.76;74.00;100552.69;5099350;27;45371;-51
2022/08/17 06:49:15;;;;;;;;;26.00;25.00;;;;;20.74;73.91;100555.59;5099368;27;45333;-53
2022/08/17 06:52:10;;;;;;;;;34.67;30.33;;;;;20.71;74.33;100550.63;5099463;27;45548;-52
2022/08/17 06:55:06;;;;;;;;;31.67;26.33;;;;;20.72;74.63;100544.16;5099113;27;46465;-53
2022/08/17 06:57:36;;;;;;;;;30.67;29.00;;;;;20.76;74.39;100547.28;5098883;27;45443;-53
2022/08/17 07:00:07;;;;;;;;;33.33;28.33;;;;;20.76;74.02;100550.81;5099380;27;45304;-55
2022/08/17 07:02:54;;;;;;;;;31.67;26.67;;;;;20.75;73.69;100549.16;5099283;27;45401;-53
2022/08/17 07:05:29;;;;;;;;;40.33;28.33;;;;;20.74;73.11;100547.50;5102844;27;45337;-56
2022/08/17 07:08:02;;;;;;;;;25.00;21.00;;;;;20.69;73.62;100558.16;5101834;27;45416;-53
2022/08/17 07:10:42;;;;;;;;;29.00;22.33;;;;;20.68;73.58;100560.00;5100213;27;45345;-56
2022/08/17 07:13:40;;;;;;;;;33.67;29.00;;;;;20.71;73.46;100561.44;5100558;27;45449;-53
2022/08/17 07:16:14;;;;;;;;;32.50;27.75;;;;;20.75;73.61;100568.06;5055740;28;46998;-52
2022/08/17 07:18:40;;;;;;;;;35.00;26.67;;;;;20.75;73.51;100572.66;5055870;28;45403;-54
2022/08/17 07:21:20;;;;;;;;;29.67;27.00;;;;;20.73;74.01;100575.59;5055958;28;45340;-53
2022/08/17 07:24:07;;;;;;;;;26.33;25.33;;;;;20.72;73.73;100584.72;5055804;28;45644;-57
2022/08/17 07:26:32;;;;;;;;;32.00;25.67;;;;;20.67;73.36;100587.25;5055510;28;45399;-54
2022/08/17 07:28:59;;;;;;;;;21.00;14.67;;;;;20.66;73.83;100610.75;5055718;28;45289;-52
2022/08/17 07:31:29;;;;;;;;;32.00;23.00;;;;;20.64;73.46;100614.69;5055640;28;45304;-53
2022/08/17 07:34:02;;;;;;;;;26.67;23.00;;;;;20.64;74.27;100614.69;5055746;28;45383;-51
2022/08/17 07:36:32;;;;;;;;;28.75;24.00;;;;;20.65;73.63;100616.38;5055333;28;45366;-53
2022/08/17 07:39:00;;;;;;;;;22.00;18.00;;;;;20.49;73.98;100606.91;5055252;28;45284;-53
2022/08/17 07:41:30;;;;;;;;;31.00;24.00;;;;;20.46;73.77;100609.97;5055627;28;45433;-52
2022/08/17 07:43:55;;;;;;;;;23.75;23.75;;;;;20.53;74.03;100621.63;5055599;28;45528;-54
2022/08/17 07:49:11;;;;;;;;;24.75;20.25;;;;;20.56;73.71;100636.56;5055333;28;45383;-53
2022/08/17 07:51:52;;;;;;;;;27.00;23.75;;;;;20.59;74.04;100628.03;5055220;28;45306;-53
2022/08/17 07:54:22;;;;;;;;;27.67;22.67;;;;;20.62;74.13;100631.16;5098324;27;45480;-54
2022/08/17 07:56:55;;;;;;;;;27.00;21.25;;;;;20.62;74.09;100633.84;5098319;27;46220;-54
2022/08/17 07:59:23;;;;;;;;;24.75;19.00;;;;;20.62;73.16;100633.03;5098101;27;45459;-54
2022/08/17 08:01:59;;;;;;;;;21.00;21.00;;;;;20.54;74.29;100635.97;5098416;27;45350;-54
2022/08/17 08:04:41;;;;;;;;;23.00;21.75;;;;;20.48;74.65;100639.47;5098473;27;45455;-53
2022/08/17 08:07:15;;;;;;;;;21.25;16.00;;;;;20.47;74.74;100641.34;5097972;27;46566;-55
2022/08/17 08:09:44;;;;;;;;;23.50;22.00;;;;;20.47;75.28;100640.53;5097933;27;45436;-54
2022/08/17 08:12:33;;;;;;;;;29.75;25.75;;;;;20.50;74.25;100650.94;5097979;27;45473;-53
2022/08/17 08:15:12;;;;;;;;;28.50;22.50;;;;;20.53;75.20;100647.84;5098077;27;45411;-53
2022/08/17 08:17:54;;;;;;;;;27.00;23.00;;;;;20.56;74.91;100650.09;5097946;27;46236;-52
2022/08/17 08:20:54;;;;;;;;;29.33;20.00;;;;;20.59;74.15;100655.91;5097897;27;45320;-52
2022/08/17 08:23:34;;;;;;;;;33.00;22.75;;;;;20.62;74.86;100666.28;5094436;27;45528;-53
2022/08/17 08:26:25;;;;;;;;;27.25;24.75;;;;;20.64;74.49;100669.59;5098113;27;45486;-53
2022/08/17 08:28:57;;;;;;;;;24.75;20.50;;;;;20.62;74.34;100668.97;5097637;27;47082;-54
2022/08/17 08:32:19;;;;;;;;;24.50;22.25;;;;;20.65;74.31;100665.88;5097418;27;45258;-54
2022/08/17 08:34:52;;;;;;;;;26.50;19.25;;;;;20.75;74.19;100654.59;5054658;28;45418;-54
2022/08/17 08:37:40;;;;;;;;;25.67;23.00;;;;;20.83;73.37;100651.63;5054647;28;45461;-55
2022/08/17 08:40:17;;;;;;;;;23.50;20.50;;;;;20.87;73.39;100658.25;5054163;28;45354;-55
2022/08/17 08:43:02;;;;;;;;;20.25;17.00;;;;;20.91;72.30;100656.78;5054544;28;45382;-50
2022/08/17 08:45:55;;;;;;;;;25.25;24.25;;;;;20.93;73.37;100673.59;5054753;28;45303;-53
2022/08/17 08:48:43;;;;;;;;;21.50;20.00;;;;;20.97;72.73;100667.78;5054689;28;45380;-52
2022/08/17 08:51:26;;;;;;;;;25.75;22.25;;;;;21.00;73.10;100660.06;5054264;28;48061;-53
2022/08/17 08:54:12;;;;;;;;;25.75;22.00;;;;;21.07;73.00;100660.00;5054318;28;45312;-52
2022/08/17 08:56:47;;;;;;;;;25.75;20.25;;;;;21.11;71.93;100670.19;5054487;28;45455;-53
2022/08/17 08:59:37;;;;;;;;;29.00;22.25;;;;;21.10;73.00;100671.22;5060470;28;45438;-52
2022/08/17 09:02:16;;;;;;;;;28.25;21.75;;;;;21.14;72.78;100653.50;5060988;28;46145;-52
2022/08/17 09:05:06;;;;;;;;;26.00;21.75;;;;;21.15;72.34;100651.63;5067976;27;45360;-52
2022/08/17 09:07:46;;;;;;;;;23.00;20.25;;;;;21.16;72.79;100656.84;5104107;27;45410;-54
2022/08/17 09:10:30;;;;;;;;;22.00;18.25;;;;;21.21;72.29;100669.72;5103910;27;45464;-53
2022/08/17 09:13:20;;;;;;;;;22.75;19.75;;;;;21.26;71.95;100655.53;5103602;27;46009;-53
2022/08/17 09:15:57;;;;;;;;;24.00;20.75;;;;;21.26;72.47;100650.09;5103731;27;45482;-52
2022/08/17 09:18:32;;;;;;;;;25.75;24.00;;;;;21.31;72.25;100652.97;5104025;27;45425;-55
2022/08/17 09:21:12;;;;;;;;;25.25;22.25;;;;;21.31;72.05;100652.97;5104226;27;45557;-53
2022/08/17 09:23:58;;;;;;;;;30.25;25.00;;;;;21.25;72.22;100648.47;5103656;27;47221;-53
2022/08/17 09:26:36;;;;;;;;;26.00;22.75;;;;;21.32;71.55;100660.94;5103795;27;45584;-53
2022/08/17 09:29:07;;;;;;;;;22.75;20.75;;;;;21.37;71.68;100661.09;5103915;27;45464;-52
2022/08/17 09:31:40;;;;;;;;;21.25;19.25;;;;;21.45;71.61;100660.00;5103873;27;45454;-54
2022/08/17 09:34:18;;;;;;;;;25.50;22.00;;;;;21.51;71.28;100650.16;5103608;27;46048;-52
2022/08/17 09:36:49;;;;;;;;;22.75;20.25;;;;;21.55;71.29;100645.97;5103465;27;45417;-54
2022/08/17 09:39:26;;;;;;;;;25.00;23.25;;;;;21.61;70.78;100654.00;5103888;27;45222;-52
2022/08/17 09:42:03;;;;;;;;;22.25;22.25;;;;;21.67;71.00;100663.97;5103684;27;45338;-53
2022/08/17 09:44:54;;;;;;;;;29.75;27.00;;;;;21.68;70.42;100668.31;5103461;27;46426;-54
2022/08/17 09:47:28;;;;;;;;;23.75;21.00;;;;;21.72;70.66;100676.84;5103050;27;45292;-51
2022/08/17 09:50:01;;;;;;;;;24.75;20.75;;;;;21.68;70.49;100675.63;5103810;27;45279;-53
2022/08/17 09:52:29;;;;;;;;;27.25;25.25;;;;;21.65;70.63;100681.47;5103690;27;45304;-54
2022/08/17 09:54:56;;;;;;;;;23.50;22.00;;;;;21.55;70.59;100675.75;5103233;27;45420;-54
2022/08/17 09:57:22;;;;;;;;;22.00;22.00;;;;;21.70;69.60;100694.34;5103499;27;45221;-53
2022/08/17 10:00:14;;;;;;;;;27.50;26.00;;;;;21.69;69.70;100698.94;5103787;27;45227;-53
2022/08/17 10:03:03;;;;;;;;;22.50;22.00;;;;;21.71;70.19;100704.16;5103862;27;45382;-53
2022/08/17 10:05:45;;;;;;;;;26.50;22.50;;;;;21.74;69.95;100703.69;5103239;27;45360;-54
2022/08/17 10:08:33;;;;;;;;;26.50;25.00;;;;;21.78;69.74;100694.06;5103166;27;45229;-53
2022/08/17 10:11:11;;;;;;;;;31.75;25.25;;;;;21.76;69.98;100699.72;5098918;27;45581;-53
2022/08/17 10:13:45;;;;;;;;;26.75;24.75;;;;;21.73;70.40;100702.84;5100201;27;45465;-51
2022/08/17 10:16:21;;;;;;;;;18.50;17.50;;;;;21.72;70.10;100711.22;5099885;27;46171;-53
2022/08/17 10:18:52;;;;;;;;;26.25;24.00;;;;;21.79;70.48;100698.44;5099700;27;45330;-53
2022/08/17 10:27:11;;;;;;;;;32.75;27.00;;;;;21.76;70.07;100699.72;5099559;27;45365;-55
2022/08/17 10:29:45;;;;;;;;;30.25;27.25;;;;;21.74;69.97;100701.78;5099568;27;45351;-52
2022/08/17 10:32:17;;;;;;;;;31.25;27.75;;;;;21.78;70.00;100694.06;5099724;27;45392;-52
2022/08/17 10:34:49;;;;;;;;;28.50;27.25;;;;;21.80;69.77;100694.69;5100097;27;45347;-51
2022/08/17 10:37:42;;;;;;;;;32.50;29.25;;;;;21.78;69.52;100697.59;5099308;27;45663;-53
2022/08/17 10:40:19;;;;;;;;;33.33;28.00;;;;;21.80;69.37;100692.81;5099290;27;45390;-53
2022/08/17 10:42:54;;;;;;;;;32.25;28.25;;;;;21.83;70.18;100691.53;5099501;27;45238;-55
2022/08/17 10:45:50;;;;;;;;;31.25;26.75;;;;;21.88;69.72;100695.22;5099678;27;45405;-53
2022/08/17 10:48:42;;;;;;;;;37.00;30.00;;;;;21.95;68.84;100694.34;5099254;27;46130;-54
2022/08/17 10:51:36;;;;;;;;;29.50;28.00;;;;;22.01;69.11;100693.47;5097273;27;45398;-53
2022/08/17 10:54:23;;;;;;;;;29.75;24.25;;;;;22.11;68.69;100702.72;5099403;27;45370;-54
2022/08/17 10:56:49;;;;;;;;;29.75;27.75;;;;;22.22;68.59;100712.03;5098892;27;45491;-54
2022/08/17 10:59:33;;;;;;;;;34.50;29.75;;;;;22.29;68.00;100701.97;5099200;27;45635;-53
2022/08/17 11:02:24;;;;;;;;;32.25;28.50;;;;;22.41;67.65;100708.25;5099213;27;45463;-54
2022/08/17 11:04:59;;;;;;;;;31.75;28.75;;;;;22.46;67.72;100713.03;5099420;27;45367;-53
2022/08/17 11:07:36;;;;;;;;;27.25;25.75;;;;;22.60;66.97;100706.38;5099352;27;45503;-54
2022/08/17 11:10:17;;;;;;;;;29.75;27.75;;;;;22.87;66.89;100700.63;5098324;27;46373;-54
2022/08/17 11:12:53;;;;;;;;;34.25;26.50;;;;;23.11;65.90;100694.28;5098908;27;45415;-55
2022/08/17 11:15:55;;;;;;;;;34.25;28.00;;;;;23.28;65.09;100696.34;5098911;27;45243;-55
2022/08/17 11:18:39;;;;;;;;;31.00;27.75;;;;;23.53;64.33;100691.56;5099193;27;45399;-55
2022/08/17 11:21:39;;;;;;;;;32.50;28.25;;;;;23.72;63.89;100676.00;5098319;27;46309;-55
2022/08/17 11:24:17;;;;;;;;;32.75;29.00;;;;;23.96;63.14;100665.97;5098703;27;45558;-54
2022/08/17 11:26:57;;;;;;;;;38.50;29.00;;;;;24.36;62.50;100676.13;5098660;27;45451;-55
2022/08/17 11:29:28;;;;;;;;;29.00;27.75;;;;;24.63;61.61;100669.09;5098973;27;45941;-54
2022/08/17 11:32:06;;;;;;;;;31.75;26.75;;;;;25.16;60.37;100686.19;5097392;27;45311;-55
2022/08/17 11:34:33;;;;;;;;;32.75;28.50;;;;;26.56;58.77;100692.47;5098616;27;45420;-54
2022/08/17 11:37:05;;;;;;;;;31.50;31.00;;;;;28.55;51.64;100688.72;5098420;27;45436;-54
2022/08/17 11:39:49;;;;;;;;;29.00;27.75;;;;;29.94;50.28;100687.84;5098848;27;45346;-55
2022/08/17 11:42:26;;;;;;;;;33.20;30.00;;;;;30.11;48.18;100682.03;5098346;27;45930;-55
2022/08/17 11:44:56;;;;;;;;;31.00;25.40;;;;;31.61;47.63;100681.84;5098548;27;45223;-55
2022/08/17 11:53:38;;;;;;;;;26.60;23.80;;;;;31.78;44.34;100684.97;5098430;27;45803;-54
2022/08/17 11:56:08;;;;;;;;;27.60;25.00;;;;;31.59;43.31;100678.53;5082662;27;45431;-55
2022/08/17 11:58:39;;;;;;;;;23.80;23.00;;;;;31.01;44.84;100679.25;5098475;27;45329;-55
2022/08/17 12:01:12;;;;;;;;;28.20;26.40;;;;;30.22;45.44;100685.63;5098256;27;45365;-55
2022/08/17 12:03:41;;;;;;;;;26.20;24.60;;;;;29.28;47.59;100691.41;5098067;27;45308;-55